Time;durP1;ratioP1;P1;durP2;ratioP2;P2;SDS_P1;SDS_P2;PMS_P1;PMS_P2;Temp;Humidity;BMP_temperature;BMP_pressure;BME280_temperature;BME280_humidity;BME280_pressure;Samples;Min_cycle;Max_cycle;Signal;HPM_P1;HPM_P2
2022/08/21 00:01:36;;;;;;;36.70;7.30;;;;;;;;;;5050206;28;20116;-53
2022/08/21 00:04:04;;;;;;;24.25;6.95;;;;;;;;;;5046900;28;20044;-53
2022/08/21 00:06:32;;;;;;;25.35;6.72;;;;;;;;;;5046075;28;20080;-51
2022/08/21 00:08:59;;;;;;;37.00;7.25;;;;;;;;;;5046041;28;20080;-53
2022/08/21 00:11:32;;;;;;;13.77;5.95;;;;;;;;;;5046967;28;20067;-53
2022/08/21 00:13:58;;;;;;;31.60;7.22;;;;;;;;;;5047746;28;20175;-51
2022/08/21 00:16:25;;;;;;;29.95;6.40;;;;;;;;;;5048790;28;20129;-53
2022/08/21 00:18:51;;;;;;;57.65;9.57;;;;;;;;;;5045752;28;20144;-53
2022/08/21 00:21:18;;;;;;;20.38;6.70;;;;;;;;;;5046103;28;20048;-52
2022/08/21 00:23:44;;;;;;;35.65;6.85;;;;;;;;;;5045767;28;20144;-55
2022/08/21 00:26:11;;;;;;;31.33;6.88;;;;;;;;;;5049808;28;20478;-54
2022/08/21 00:28:38;;;;;;;32.50;6.93;;;;;;;;;;5050629;28;20515;-53
2022/08/21 00:31:04;;;;;;;48.35;8.10;;;;;;;;;;5042350;28;20103;-54
2022/08/21 00:33:31;;;;;;;22.00;6.35;;;;;;;;;;5043262;28;20063;-54
2022/08/21 00:35:57;;;;;;;32.17;7.40;;;;;;;;;;5045661;28;20119;-56
2022/08/21 00:38:24;;;;;;;49.42;8.30;;;;;;;;;;5046448;28;20052;-53
2022/08/21 00:40:52;;;;;;;36.92;7.30;;;;;;;;;;5048468;28;20124;-54
2022/08/21 00:43:23;;;;;;;29.20;7.15;;;;;;;;;;5048833;28;20044;-54
2022/08/21 00:45:50;;;;;;;37.00;8.07;;;;;;;;;;5045282;28;20049;-54
2022/08/21 00:48:17;;;;;;;24.17;7.00;;;;;;;;;;5045601;28;20079;-53
2022/08/21 00:50:50;;;;;;;39.40;7.97;;;;;;;;;;5045653;28;20040;-54
2022/08/21 00:53:16;;;;;;;23.90;6.22;;;;;;;;;;5045892;28;20056;-54
2022/08/21 00:55:44;;;;;;;19.52;5.82;;;;;;;;;;5049769;28;20120;-54
2022/08/21 00:58:12;;;;;;;21.77;6.20;;;;;;;;;;5044876;28;20068;-55
2022/08/21 01:00:40;;;;;;;25.98;6.10;;;;;;;;;;5042358;28;20170;-54
2022/08/21 01:03:10;;;;;;;21.27;6.00;;;;;;;;;;5041134;28;20127;-54
2022/08/21 01:05:37;;;;;;;32.90;7.00;;;;;;;;;;5033752;28;20060;-53
2022/08/21 01:08:04;;;;;;;32.30;6.50;;;;;;;;;;5045848;28;20060;-53
2022/08/21 01:10:31;;;;;;;20.48;6.68;;;;;;;;;;5050545;28;20033;-54
2022/08/21 01:12:58;;;;;;;32.97;7.47;;;;;;;;;;5045379;28;20476;-54
2022/08/21 01:15:28;;;;;;;16.60;5.82;;;;;;;;;;5046245;28;20040;-54
2022/08/21 01:17:54;;;;;;;28.77;7.43;;;;;;;;;;5045858;28;20064;-52
2022/08/21 01:20:21;;;;;;;26.27;6.70;;;;;;;;;;5050002;28;20034;-54
2022/08/21 01:22:57;;;;;;;24.05;6.53;;;;;;;;;;5051458;28;20143;-54
2022/08/21 01:25:24;;;;;;;32.17;7.72;;;;;;;;;;5053510;28;20512;-54
2022/08/21 01:27:51;;;;;;;41.35;8.32;;;;;;;;;;5049767;28;20121;-52
2022/08/21 01:30:20;;;;;;;23.25;6.60;;;;;;;;;;5049365;28;20049;-54
2022/08/21 01:32:47;;;;;;;27.85;7.40;;;;;;;;;;5050066;28;20160;-53
2022/08/21 01:35:14;;;;;;;37.28;8.20;;;;;;;;;;5048391;28;20034;-54
2022/08/21 01:37:41;;;;;;;21.13;6.38;;;;;;;;;;5053045;28;20069;-55
2022/08/21 01:40:08;;;;;;;18.20;6.18;;;;;;;;;;5050886;28;20451;-54
2022/08/21 01:42:35;;;;;;;42.03;8.68;;;;;;;;;;5049098;28;20041;-52
2022/08/21 01:45:03;;;;;;;26.92;7.13;;;;;;;;;;5048747;28;20045;-54
2022/08/21 01:47:29;;;;;;;35.60;7.88;;;;;;;;;;5048845;28;20552;-51
2022/08/21 01:49:56;;;;;;;47.47;9.05;;;;;;;;;;5050655;28;20080;-54
2022/08/21 01:52:23;;;;;;;22.92;6.88;;;;;;;;;;5051831;28;20075;-54
2022/08/21 01:54:49;;;;;;;43.58;8.25;;;;;;;;;;5049322;28;20637;-53
2022/08/21 01:57:21;;;;;;;33.80;8.13;;;;;;;;;;5052832;28;20037;-53
2022/08/21 01:59:51;;;;;;;30.77;7.93;;;;;;;;;;5048464;28;20048;-53
2022/08/21 02:02:18;;;;;;;29.98;7.43;;;;;;;;;;5048762;28;20068;-52
2022/08/21 02:04:44;;;;;;;39.03;8.52;;;;;;;;;;5051699;28;20072;-52
2022/08/21 02:07:11;;;;;;;18.25;7.15;;;;;;;;;;5050376;28;20069;-54
2022/08/21 02:09:37;;;;;;;28.15;7.68;;;;;;;;;;5049099;28;20763;-53
2022/08/21 02:12:05;;;;;;;31.52;9.30;;;;;;;;;;5048712;28;20064;-53
2022/08/21 02:14:32;;;;;;;18.15;6.50;;;;;;;;;;5047780;28;20561;-54
2022/08/21 02:16:59;;;;;;;38.03;8.77;;;;;;;;;;5049564;28;20048;-53
2022/08/21 02:19:35;;;;;;;21.70;7.00;;;;;;;;;;5049106;28;20464;-54
2022/08/21 02:22:10;;;;;;;38.13;8.57;;;;;;;;;;5051054;28;20037;-52
2022/08/21 02:24:36;;;;;;;39.17;8.38;;;;;;;;;;5048678;28;20072;-52
2022/08/21 02:27:21;;;;;;;20.10;7.07;;;;;;;;;;5048509;28;20108;-53
2022/08/21 02:29:51;;;;;;;42.25;8.43;;;;;;;;;;5046651;28;20045;-53
2022/08/21 02:32:18;;;;;;;21.85;7.82;;;;;;;;;;5048530;28;20029;-54
2022/08/21 02:34:44;;;;;;;38.33;8.63;;;;;;;;;;5051013;28;20132;-53
2022/08/21 02:37:12;;;;;;;39.97;8.73;;;;;;;;;;5050084;28;20044;-54
2022/08/21 02:39:38;;;;;;;14.45;6.00;;;;;;;;;;5049162;28;20569;-54
2022/08/21 02:42:05;;;;;;;28.65;7.80;;;;;;;;;;5048016;28;20041;-54
2022/08/21 02:44:31;;;;;;;44.40;9.13;;;;;;;;;;5048230;28;20080;-54
2022/08/21 02:47:00;;;;;;;33.42;8.23;;;;;;;;;;5049172;28;20046;-52
2022/08/21 02:49:26;;;;;;;34.20;8.18;;;;;;;;;;5051418;28;20135;-51
2022/08/21 02:51:53;;;;;;;43.17;8.98;;;;;;;;;;5047485;28;20041;-54
2022/08/21 02:54:20;;;;;;;20.45;6.85;;;;;;;;;;5047456;28;20116;-53
2022/08/21 02:56:46;;;;;;;34.90;8.65;;;;;;;;;;5047770;28;20052;-54
2022/08/21 02:59:13;;;;;;;37.33;8.70;;;;;;;;;;5048453;28;20076;-54
2022/08/21 03:01:39;;;;;;;23.77;7.35;;;;;;;;;;5048273;28;20107;-54
2022/08/21 03:04:06;;;;;;;17.20;7.38;;;;;;;;;;5048850;28;20127;-52
2022/08/21 03:06:33;;;;;;;38.67;8.75;;;;;;;;;;5047924;28;20041;-53
2022/08/21 03:09:00;;;;;;;33.40;9.77;;;;;;;;;;5047964;28;20036;-52
2022/08/21 03:11:26;;;;;;;21.70;7.57;;;;;;;;;;5048575;28;20094;-54
2022/08/21 03:13:53;;;;;;;48.80;10.13;;;;;;;;;;5049125;28;20128;-54
2022/08/21 03:16:20;;;;;;;22.38;7.53;;;;;;;;;;5045584;28;20104;-52
2022/08/21 03:18:47;;;;;;;23.58;8.50;;;;;;;;;;5044900;28;20057;-54
2022/08/21 03:21:13;;;;;;;32.38;8.40;;;;;;;;;;5047097;28;20032;-51
2022/08/21 03:23:41;;;;;;;23.48;8.07;;;;;;;;;;5047796;28;20099;-54
2022/08/21 03:26:10;;;;;;;19.63;7.75;;;;;;;;;;5047811;28;20132;-53
2022/08/21 03:28:37;;;;;;;42.40;10.35;;;;;;;;;;5051843;28;20045;-54
2022/08/21 03:31:04;;;;;;;25.55;8.25;;;;;;;;;;5047237;28;20060;-54
2022/08/21 03:33:31;;;;;;;18.17;7.60;;;;;;;;;;5047030;28;20084;-53
2022/08/21 03:36:01;;;;;;;39.08;9.55;;;;;;;;;;5045518;28;20115;-52
2022/08/21 03:38:29;;;;;;;19.05;7.55;;;;;;;;;;5047264;28;20041;-53
2022/08/21 03:40:55;;;;;;;59.90;11.10;;;;;;;;;;5049163;28;20048;-53
2022/08/21 03:43:22;;;;;;;36.47;9.07;;;;;;;;;;5045375;28;20131;-54
2022/08/21 03:45:49;;;;;;;26.30;8.30;;;;;;;;;;5045689;28;20448;-53
2022/08/21 03:48:18;;;;;;;19.15;7.43;;;;;;;;;;5047082;28;20405;-53
2022/08/21 03:50:46;;;;;;;42.50;9.50;;;;;;;;;;5074523;28;20073;-54
2022/08/21 03:53:14;;;;;;;12.52;7.15;;;;;;;;;;5047459;28;20123;-53
2022/08/21 03:55:43;;;;;;;70.53;10.35;;;;;;;;;;5051097;28;20087;-53
2022/08/21 03:58:10;;;;;;;44.65;10.00;;;;;;;;;;5047775;28;20533;-54
2022/08/21 04:00:43;;;;;;;30.33;8.73;;;;;;;;;;5046205;28;20099;-55
2022/08/21 04:03:09;;;;;;;29.02;9.45;;;;;;;;;;5046399;28;20045;-53
2022/08/21 04:05:37;;;;;;;30.73;9.40;;;;;;;;;;5046357;28;20063;-54
2022/08/21 04:08:05;;;;;;;23.58;8.27;;;;;;;;;;5047227;28;20034;-54
2022/08/21 04:10:34;;;;;;;43.03;9.32;;;;;;;;;;5051216;28;20128;-53
2022/08/21 04:13:00;;;;;;;28.88;8.30;;;;;;;;;;5046347;28;20075;-54
2022/08/21 04:15:27;;;;;;;16.77;6.95;;;;;;;;;;5047094;28;20128;-53
2022/08/21 04:17:54;;;;;;;26.55;7.75;;;;;;;;;;5046582;28;20047;-52
2022/08/21 04:20:21;;;;;;;32.70;7.88;;;;;;;;;;5046732;28;20037;-56
2022/08/21 04:22:48;;;;;;;28.45;7.55;;;;;;;;;;5049751;28;20037;-56
2022/08/21 04:25:15;;;;;;;29.38;8.02;;;;;;;;;;5061217;28;20485;-56
2022/08/21 04:27:41;;;;;;;41.33;8.23;;;;;;;;;;5051469;28;20123;-54
2022/08/21 04:30:08;;;;;;;18.10;6.63;;;;;;;;;;5046507;28;20072;-54
2022/08/21 04:32:36;;;;;;;35.95;6.85;;;;;;;;;;5045700;28;20152;-54
2022/08/21 04:35:04;;;;;;;43.65;9.00;;;;;;;;;;5045637;28;20076;-53
2022/08/21 04:37:31;;;;;;;22.50;7.10;;;;;;;;;;5049961;28;20132;-55
2022/08/21 04:39:58;;;;;;;32.22;7.45;;;;;;;;;;5047412;28;20490;-54
2022/08/21 04:42:25;;;;;;;34.33;7.78;;;;;;;;;;5046288;28;20568;-54
2022/08/21 04:44:52;;;;;;;25.95;6.38;;;;;;;;;;5046192;28;20064;-54
2022/08/21 04:47:19;;;;;;;22.20;6.32;;;;;;;;;;5046959;28;20037;-54
2022/08/21 04:49:45;;;;;;;44.45;8.40;;;;;;;;;;5048948;28;20520;-53
2022/08/21 04:52:13;;;;;;;29.92;6.57;;;;;;;;;;5049651;28;20127;-51
2022/08/21 04:54:43;;;;;;;40.17;7.45;;;;;;;;;;5044750;28;20568;-52
2022/08/21 04:57:10;;;;;;;31.15;6.57;;;;;;;;;;5044918;28;20477;-53
2022/08/21 04:59:42;;;;;;;14.73;5.30;;;;;;;;;;5046638;28;20076;-53
2022/08/21 05:02:09;;;;;;;19.92;5.72;;;;;;;;;;5046322;28;20112;-52
2022/08/21 05:04:37;;;;;;;30.60;6.25;;;;;;;;;;5046785;28;20068;-53
2022/08/21 05:07:05;;;;;;;19.25;5.38;;;;;;;;;;5041581;28;20061;-55
2022/08/21 05:09:33;;;;;;;22.85;5.43;;;;;;;;;;5041604;28;20087;-54
2022/08/21 05:12:01;;;;;;;31.05;5.82;;;;;;;;;;5072999;28;20046;-54
2022/08/21 05:14:27;;;;;;;40.80;6.82;;;;;;;;;;5044169;28;20454;-53
2022/08/21 05:16:54;;;;;;;46.08;7.57;;;;;;;;;;5046454;28;20723;-55
2022/08/21 05:19:20;;;;;;;27.45;5.88;;;;;;;;;;5047156;28;20083;-54
2022/08/21 05:21:50;;;;;;;38.13;6.63;;;;;;;;;;5044533;28;20124;-53
2022/08/21 05:24:17;;;;;;;30.80;6.32;;;;;;;;;;5044701;28;20068;-54
2022/08/21 05:26:44;;;;;;;29.50;6.55;;;;;;;;;;5043089;28;20086;-54
2022/08/21 05:29:14;;;;;;;13.52;4.80;;;;;;;;;;5045711;28;20045;-54
2022/08/21 05:31:41;;;;;;;28.63;6.05;;;;;;;;;;5049119;28;20060;-55
2022/08/21 05:34:08;;;;;;;10.90;4.72;;;;;;;;;;5047258;28;20072;-54
2022/08/21 05:36:35;;;;;;;19.20;5.38;;;;;;;;;;5044808;28;20049;-54
2022/08/21 05:39:02;;;;;;;27.02;6.05;;;;;;;;;;5045557;28;20065;-54
2022/08/21 05:41:28;;;;;;;14.85;4.85;;;;;;;;;;5046441;28;20551;-55
2022/08/21 05:43:55;;;;;;;24.77;5.28;;;;;;;;;;5047662;28;20119;-55
2022/08/21 05:46:22;;;;;;;18.25;5.30;;;;;;;;;;5048505;28;20037;-55
2022/08/21 05:48:48;;;;;;;24.88;5.65;;;;;;;;;;5045588;28;20096;-52
2022/08/21 05:51:15;;;;;;;17.85;5.15;;;;;;;;;;5045719;28;20045;-55
2022/08/21 05:53:42;;;;;;;22.05;5.30;;;;;;;;;;5046023;28;20565;-55
2022/08/21 05:56:09;;;;;;;23.25;5.40;;;;;;;;;;5046164;28;20037;-54
2022/08/21 05:58:35;;;;;;;16.83;4.60;;;;;;;;;;5049906;28;20064;-55
2022/08/21 06:01:02;;;;;;;21.23;5.28;;;;;;;;;;5045582;28;20063;-54
2022/08/21 06:03:30;;;;;;;21.73;4.75;;;;;;;;;;5045403;28;20072;-55
2022/08/21 06:05:57;;;;;;;19.60;5.00;;;;;;;;;;5048546;28;20041;-53
2022/08/21 06:08:24;;;;;;;27.13;5.35;;;;;;;;;;5049299;28;20038;-61
2022/08/21 06:10:52;;;;;;;29.20;5.90;;;;;;;;;;5052200;28;20079;-61
2022/08/21 06:13:19;;;;;;;14.65;4.63;;;;;;;;;;5051175;28;20053;-62
2022/08/21 06:15:46;;;;;;;23.02;5.30;;;;;;;;;;5049127;28;20417;-62
2022/08/21 06:18:12;;;;;;;21.25;5.22;;;;;;;;;;5048969;28;20424;-61
2022/08/21 06:20:39;;;;;;;10.60;4.35;;;;;;;;;;5049610;28;20120;-61
2022/08/21 06:23:06;;;;;;;25.45;5.65;;;;;;;;;;5047054;28;20053;-61
2022/08/21 06:25:33;;;;;;;26.42;5.78;;;;;;;;;;5052941;28;20076;-61
2022/08/21 06:28:06;;;;;;;29.23;5.72;;;;;;;;;;5048015;28;20123;-61
2022/08/21 06:30:34;;;;;;;36.85;6.60;;;;;;;;;;5048470;28;20049;-61
2022/08/21 06:33:01;;;;;;;9.95;4.07;;;;;;;;;;5049433;28;20059;-62
2022/08/21 06:35:28;;;;;;;25.30;6.18;;;;;;;;;;5048314;28;20485;-61
2022/08/21 06:37:56;;;;;;;30.85;6.47;;;;;;;;;;5050538;28;20037;-61
2022/08/21 06:40:23;;;;;;;15.35;4.68;;;;;;;;;;5051619;28;20123;-61
2022/08/21 06:42:50;;;;;;;14.48;4.75;;;;;;;;;;5048011;28;20036;-62
2022/08/21 06:45:17;;;;;;;27.90;5.85;;;;;;;;;;5048172;28;20044;-61
2022/08/21 06:47:43;;;;;;;19.77;4.88;;;;;;;;;;5048537;28;20069;-62
2022/08/21 06:50:10;;;;;;;27.48;5.55;;;;;;;;;;5048517;28;20469;-62
2022/08/21 06:52:37;;;;;;;25.15;5.43;;;;;;;;;;5052692;28;20124;-61
2022/08/21 06:55:05;;;;;;;13.30;4.55;;;;;;;;;;5048712;28;20041;-61
2022/08/21 06:57:32;;;;;;;16.80;4.47;;;;;;;;;;5047744;28;20450;-61
2022/08/21 06:59:58;;;;;;;20.67;5.35;;;;;;;;;;5048289;28;20095;-61
2022/08/21 07:02:25;;;;;;;18.77;4.95;;;;;;;;;;5050419;28;20110;-61
2022/08/21 07:04:52;;;;;;;32.42;6.22;;;;;;;;;;5050856;28;20124;-62
2022/08/21 07:07:18;;;;;;;18.65;4.95;;;;;;;;;;5050104;28;20128;-61
2022/08/21 07:09:45;;;;;;;24.95;5.70;;;;;;;;;;5047828;28;20584;-61
2022/08/21 07:12:12;;;;;;;13.57;4.50;;;;;;;;;;5047475;28;20112;-62
2022/08/21 07:14:38;;;;;;;18.90;4.68;;;;;;;;;;5047804;28;20473;-61
2022/08/21 07:17:05;;;;;;;33.92;6.63;;;;;;;;;;5048208;28;20461;-61
2022/08/21 07:19:32;;;;;;;13.95;4.65;;;;;;;;;;5052054;28;20044;-62
2022/08/21 07:22:00;;;;;;;31.05;6.05;;;;;;;;;;5047395;28;20079;-61
2022/08/21 07:24:27;;;;;;;21.77;5.38;;;;;;;;;;5047575;28;20132;-61
2022/08/21 07:26:54;;;;;;;24.98;5.93;;;;;;;;;;5047452;28;20565;-61
2022/08/21 07:29:20;;;;;;;20.08;5.25;;;;;;;;;;5047637;28;20042;-61
2022/08/21 07:31:47;;;;;;;50.50;7.97;;;;;;;;;;5051461;28;20128;-61
2022/08/21 07:34:13;;;;;;;23.92;5.40;;;;;;;;;;5048689;28;20642;-61
2022/08/21 07:36:40;;;;;;;20.63;5.38;;;;;;;;;;5047445;28;20478;-61
2022/08/21 07:39:07;;;;;;;29.85;6.20;;;;;;;;;;5047111;28;20044;-62
2022/08/21 07:41:35;;;;;;;7.22;3.95;;;;;;;;;;5047669;28;20091;-61
2022/08/21 07:44:02;;;;;;;25.23;5.47;;;;;;;;;;5048486;28;20143;-61
2022/08/21 07:46:29;;;;;;;26.30;5.78;;;;;;;;;;5050727;28;20045;-61
2022/08/21 07:48:55;;;;;;;151.63;13.82;;;;;;;;;;5047021;28;20071;-62
2022/08/21 07:51:25;;;;;;;29.73;6.03;;;;;;;;;;5046789;28;20477;-62
2022/08/21 07:53:52;;;;;;;46.95;7.75;;;;;;;;;;5047110;28;20041;-62
2022/08/21 07:56:19;;;;;;;16.50;4.78;;;;;;;;;;5046591;28;20067;-62
2022/08/21 07:58:46;;;;;;;26.45;5.32;;;;;;;;;;5050682;28;20095;-61
2022/08/21 08:01:12;;;;;;;36.33;5.78;;;;;;;;;;5047931;28;20124;-61
2022/08/21 08:03:39;;;;;;;14.73;4.68;;;;;;;;;;5047049;28;20040;-61
2022/08/21 08:06:08;;;;;;;23.42;5.15;;;;;;;;;;5046853;28;20537;-61
2022/08/21 08:08:34;;;;;;;40.55;7.22;;;;;;;;;;5046460;28;20053;-61
2022/08/21 08:11:01;;;;;;;16.83;4.68;;;;;;;;;;5048973;28;20076;-62
2022/08/21 08:13:28;;;;;;;10.18;4.15;;;;;;;;;;5049886;28;20044;-63
2022/08/21 08:15:54;;;;;;;32.45;5.93;;;;;;;;;;5046303;28;20073;-61
2022/08/21 08:18:21;;;;;;;28.40;6.00;;;;;;;;;;5046319;28;20037;-62
2022/08/21 08:20:47;;;;;;;29.27;5.80;;;;;;;;;;5046367;28;20482;-62
2022/08/21 08:23:14;;;;;;;43.75;6.65;;;;;;;;;;5046320;28;20041;-61
2022/08/21 08:25:41;;;;;;;11.75;3.97;;;;;;;;;;5051947;28;20119;-61
2022/08/21 08:28:08;;;;;;;10.68;3.78;;;;;;;;;;5045505;28;20041;-62
2022/08/21 08:30:43;;;;;;;21.10;4.50;;;;;;;;;;5046128;28;20075;-62
2022/08/21 08:33:10;;;;;;;26.98;4.70;;;;;;;;;;5046065;28;20060;-62
2022/08/21 08:35:36;;;;;;;14.85;3.63;;;;;;;;;;5046347;28;20116;-62
2022/08/21 08:38:04;;;;;;;22.95;4.50;;;;;;;;;;5047466;28;20702;-62
2022/08/21 08:40:43;;;;;;;24.45;5.40;;;;;;;;;;5050406;28;20409;-61
2022/08/21 08:43:11;;;;;;;43.92;7.22;;;;;;;;;;5046347;28;20041;-61
2022/08/21 08:45:42;;;;;;;57.63;8.05;;;;;;;;;;5046154;28;20048;-62
2022/08/21 08:48:10;;;;;;;23.98;5.05;;;;;;;;;;5045854;28;20095;-61
2022/08/21 08:50:52;;;;;;;62.85;7.63;;;;;;;;;;5045759;28;20452;-61
2022/08/21 08:53:44;;;;;;;28.75;5.45;;;;;;;;;;5031220;28;20060;-62
2022/08/21 08:56:11;;;;;;;16.50;4.40;;;;;;;;;;5027471;28;20073;-62
2022/08/21 08:58:39;;;;;;;23.85;4.88;;;;;;;;;;5050296;28;20462;-62
2022/08/21 09:01:12;;;;;;;57.40;7.32;;;;;;;;;;5045783;28;20045;-62
2022/08/21 09:03:39;;;;;;;21.50;4.85;;;;;;;;;;5045816;28;20045;-61
2022/08/21 09:06:06;;;;;;;26.17;4.60;;;;;;;;;;5045918;28;20072;-61
2022/08/21 09:08:33;;;;;;;90.85;8.35;;;;;;;;;;5045965;28;20052;-62
2022/08/21 09:11:02;;;;;;;22.15;4.68;;;;;;;;;;5047678;28;20417;-61
2022/08/21 09:13:47;;;;;;;17.20;4.55;;;;;;;;;;5048788;28;20116;-60
2022/08/21 09:16:14;;;;;;;38.85;5.43;;;;;;;;;;5046934;28;20045;-61
2022/08/21 09:18:54;;;;;;;24.17;4.90;;;;;;;;;;5045713;28;20075;-61
2022/08/21 09:21:30;;;;;;;58.00;7.97;;;;;;;;;;5045482;28;20051;-61
2022/08/21 09:24:10;;;;;;;32.30;5.90;;;;;;;;;;5045961;28;20037;-61
2022/08/21 09:27:04;;;;;;;20.95;4.95;;;;;;;;;;5046225;28;20037;-61
2022/08/21 09:29:32;;;;;;;31.23;5.32;;;;;;;;;;5042732;28;20057;-61
2022/08/21 09:31:59;;;;;;;36.45;5.72;;;;;;;;;;5047450;28;20068;-62
2022/08/21 09:34:28;;;;;;;25.27;5.22;;;;;;;;;;5049021;28;20045;-61
2022/08/21 09:36:56;;;;;;;33.78;5.68;;;;;;;;;;5045115;28;20132;-62
2022/08/21 09:39:38;;;;;;;43.72;5.47;;;;;;;;;;5046063;28;20045;-61
2022/08/21 09:42:08;;;;;;;36.60;5.85;;;;;;;;;;5049223;28;20041;-63
2022/08/21 09:44:40;;;;;;;26.55;4.97;;;;;;;;;;5049699;28;20076;-61
2022/08/21 09:47:07;;;;;;;;;;;;;;;;;;5050406;28;20406;-63
2022/08/21 09:49:43;;;;;;;25.85;4.82;;;;;;;;;;5053485;28;20413;-57
2022/08/21 09:52:17;;;;;;;15.77;3.83;;;;;;;;;;5049881;28;20045;-56
2022/08/21 09:54:45;;;;;;;34.35;5.80;;;;;;;;;;5049058;28;20408;-56
2022/08/21 10:00:10;;;;;;;40.90;6.22;;;;;;;;;;5048769;28;20072;-56
2022/08/21 10:02:38;;;;;;;13.32;3.97;;;;;;;;;;5049744;28;20037;-56
2022/08/21 10:05:15;;;;;;;20.35;4.40;;;;;;;;;;5050250;28;20037;-56
2022/08/21 10:07:41;;;;;;;11.95;3.97;;;;;;;;;;5050104;28;20438;-56
2022/08/21 10:10:13;;;;;;;11.10;3.38;;;;;;;;;;5049120;28;20133;-56
2022/08/21 10:12:40;;;;;;;35.80;5.75;;;;;;;;;;5048507;28;20072;-56
2022/08/21 10:15:06;;;;;;;14.38;3.63;;;;;;;;;;5048787;28;20187;-57
2022/08/21 10:17:54;;;;;;;14.43;3.28;;;;;;;;;;5049433;28;20049;-57
2022/08/21 10:20:27;;;;;;;16.63;3.97;;;;;;;;;;5048914;28;20501;-57
2022/08/21 10:22:57;;;;;;;39.90;6.13;;;;;;;;;;5051711;28;20500;-57
2022/08/21 10:25:50;;;;;;;14.98;3.53;;;;;;;;;;5051926;28;20087;-57
2022/08/21 10:28:53;;;;;;;22.25;4.45;;;;;;;;;;5052709;28;20041;-56
2022/08/21 10:31:22;;;;;;;18.63;3.90;;;;;;;;;;5050827;28;20098;-57
2022/08/21 10:33:49;;;;;;;18.73;4.18;;;;;;;;;;5048448;28;20041;-57
2022/08/21 10:36:35;;;;;;;15.90;3.63;;;;;;;;;;5048861;28;20053;-57
2022/08/21 10:39:18;;;;;;;30.17;5.00;;;;;;;;;;5048974;28;20029;-56
2022/08/21 10:42:01;;;;;;;39.83;6.03;;;;;;;;;;5047963;28;20037;-57
2022/08/21 10:44:31;;;;;;;24.45;4.65;;;;;;;;;;5048734;28;20124;-56
2022/08/21 10:47:04;;;;;;;30.38;5.57;;;;;;;;;;5051000;28;20045;-56
2022/08/21 10:49:42;;;;;;;27.20;4.65;;;;;;;;;;5051833;28;20089;-57
2022/08/21 10:52:24;;;;;;;29.08;4.85;;;;;;;;;;5047291;28;20037;-57
2022/08/21 10:55:07;;;;;;;24.27;4.28;;;;;;;;;;5048644;28;20056;-57
2022/08/21 10:57:34;;;;;;;99.43;8.82;;;;;;;;;;5048424;28;20049;-57
2022/08/21 11:00:04;;;;;;;31.52;5.22;;;;;;;;;;5048424;28;20125;-57
2022/08/21 11:02:51;;;;;;;31.48;5.22;;;;;;;;;;5048234;28;20073;-57
2022/08/21 11:05:44;;;;;;;57.17;6.65;;;;;;;;;;5048168;28;20053;-64
2022/08/21 11:08:22;;;;;;;37.05;5.78;;;;;;;;;;5047416;28;20136;-64
2022/08/21 11:10:58;;;;;;;27.88;4.85;;;;;;;;;;5052046;28;20037;-63
2022/08/21 11:13:30;;;;;;;30.42;4.90;;;;;;;;;;5050339;28;20075;-63
2022/08/21 11:15:59;;;;;;;27.90;5.03;;;;;;;;;;5048133;28;20052;-63
2022/08/21 11:18:29;;;;;;;20.02;4.00;;;;;;;;;;5048460;28;20037;-56
2022/08/21 11:20:58;;;;;;;36.80;5.60;;;;;;;;;;5045649;28;20033;-56
2022/08/21 11:23:30;;;;;;;29.55;4.50;;;;;;;;;;5047870;28;20044;-56
2022/08/21 11:26:00;;;;;;;39.15;5.95;;;;;;;;;;5065926;28;20048;-56
2022/08/21 11:28:35;;;;;;;34.83;6.25;;;;;;;;;;5064426;28;20084;-56
2022/08/21 11:31:24;;;;;;;13.23;3.60;;;;;;;;;;5042031;28;20077;-56
2022/08/21 11:34:05;;;;;;;14.88;3.78;;;;;;;;;;5045075;28;20103;-56
2022/08/21 11:36:34;;;;;;;22.63;4.57;;;;;;;;;;5045581;28;20041;-56
2022/08/21 11:39:08;;;;;;;22.25;4.07;;;;;;;;;;5047670;28;20037;-56
2022/08/21 11:41:39;;;;;;;192.57;17.27;;;;;;;;;;5047784;28;20383;-56
2022/08/21 11:44:24;;;;;;;46.00;6.68;;;;;;;;;;5048155;28;20107;-56
2022/08/21 11:47:02;;;;;;;67.90;8.40;;;;;;;;;;5047986;28;20464;-56
2022/08/21 11:49:41;;;;;;;384.08;31.20;;;;;;;;;;5050325;28;20128;-57
2022/08/21 11:52:19;;;;;;;12.25;3.25;;;;;;;;;;5047322;28;20056;-56
2022/08/21 11:54:49;;;;;;;42.42;5.47;;;;;;;;;;5047081;28;20230;-57
2022/08/21 11:57:20;;;;;;;32.13;4.40;;;;;;;;;;5046773;28;20436;-56
2022/08/21 11:59:49;;;;;;;38.38;5.70;;;;;;;;;;5047100;28;20061;-57
2022/08/21 12:02:19;;;;;;;47.28;5.72;;;;;;;;;;5047264;28;20061;-56
2022/08/21 12:04:54;;;;;;;20.98;3.92;;;;;;;;;;5047921;28;20039;-57
2022/08/21 12:07:40;;;;;;;40.40;5.90;;;;;;;;;;5048787;28;20045;-56
2022/08/21 12:10:09;;;;;;;233.35;17.80;;;;;;;;;;5046879;28;20053;-56
2022/08/21 12:12:37;;;;;;;24.02;4.07;;;;;;;;;;5046563;28;20438;-56
2022/08/21 12:15:19;;;;;;;22.23;4.30;;;;;;;;;;5046532;28;20037;-56
2022/08/21 12:17:54;;;;;;;73.40;8.63;;;;;;;;;;5046715;28;20037;-56
2022/08/21 12:20:21;;;;;;;43.80;6.05;;;;;;;;;;5046848;28;20132;-56
2022/08/21 12:22:51;;;;;;;25.35;4.95;;;;;;;;;;5051091;28;20135;-56
2022/08/21 12:25:19;;;;;;;12.15;3.35;;;;;;;;;;5050547;28;20094;-55
2022/08/21 12:27:50;;;;;;;18.05;3.70;;;;;;;;;;5046403;28;20531;-56
2022/08/21 12:30:43;;;;;;;33.85;5.45;;;;;;;;;;5046548;28;20056;-56
2022/08/21 12:33:28;;;;;;;19.88;3.90;;;;;;;;;;5044874;28;20437;-56
2022/08/21 12:36:15;;;;;;;31.38;4.68;;;;;;;;;;5038869;28;20044;-56
2022/08/21 12:38:50;;;;;;;31.17;5.15;;;;;;;;;;5046355;28;20477;-56
2022/08/21 12:41:24;;;;;;;81.93;7.28;;;;;;;;;;5046308;28;20037;-56
2022/08/21 12:43:53;;;;;;;46.15;6.57;;;;;;;;;;5049637;28;20529;-56
2022/08/21 12:46:32;;;;;;;43.58;6.45;;;;;;;;;;5050057;28;20092;-56
2022/08/21 12:49:01;;;;;;;30.88;4.88;;;;;;;;;;5046052;28;20057;-56
2022/08/21 12:51:42;;;;;;;32.05;5.43;;;;;;;;;;5045646;28;20080;-56
2022/08/21 12:54:09;;;;;;;8.23;3.08;;;;;;;;;;5046679;28;20045;-56
2022/08/21 12:56:38;;;;;;;38.08;5.97;;;;;;;;;;5045755;28;20493;-56
2022/08/21 12:59:06;;;;;;;22.10;4.03;;;;;;;;;;5047444;28;20128;-56
2022/08/21 13:01:35;;;;;;;11.40;3.72;;;;;;;;;;5049869;28;20409;-56
2022/08/21 13:04:09;;;;;;;77.05;12.27;;;;;;;;;;5045906;28;20056;-56
2022/08/21 13:06:41;;;;;;;111.53;9.43;;;;;;;;;;5046214;28;20120;-56
2022/08/21 13:09:10;;;;;;;26.08;4.70;;;;;;;;;;5045881;28;20029;-57
2022/08/21 13:11:38;;;;;;;9.23;3.22;;;;;;;;;;5046259;28;20148;-56
2022/08/21 13:14:13;;;;;;;18.05;3.75;;;;;;;;;;5046673;28;20049;-56
2022/08/21 13:16:43;;;;;;;41.33;5.75;;;;;;;;;;5050679;28;20727;-57
2022/08/21 13:19:11;;;;;;;17.67;3.67;;;;;;;;;;5046467;28;20140;-56
2022/08/21 13:21:42;;;;;;;25.75;4.40;;;;;;;;;;5045679;28;20563;-56
2022/08/21 13:24:23;;;;;;;31.23;5.13;;;;;;;;;;5045974;28;20071;-56
2022/08/21 13:27:25;;;;;;;28.88;4.72;;;;;;;;;;5044441;28;20497;-56
2022/08/21 13:30:01;;;;;;;15.27;3.60;;;;;;;;;;5046250;28;20091;-56
2022/08/21 13:32:30;;;;;;;28.02;4.55;;;;;;;;;;5045545;28;20047;-56
2022/08/21 13:34:57;;;;;;;32.97;4.72;;;;;;;;;;5046748;28;20417;-56
2022/08/21 13:37:24;;;;;;;17.42;4.10;;;;;;;;;;5047904;28;20573;-56
2022/08/21 13:39:52;;;;;;;36.25;5.13;;;;;;;;;;5045856;28;20524;-56
2022/08/21 13:42:19;;;;;;;20.20;3.67;;;;;;;;;;5045225;28;20095;-56
2022/08/21 13:44:46;;;;;;;30.23;4.55;;;;;;;;;;5045481;28;20037;-56
2022/08/21 13:47:14;;;;;;;45.15;5.90;;;;;;;;;;5046681;28;20068;-56
2022/08/21 13:49:43;;;;;;;11.35;2.97;;;;;;;;;;5050152;28;20060;-56
2022/08/21 13:52:19;;;;;;;14.18;3.17;;;;;;;;;;5045730;28;20120;-56
2022/08/21 13:54:53;;;;;;;24.00;4.03;;;;;;;;;;5045667;28;20095;-56
2022/08/21 13:57:25;;;;;;;56.45;6.38;;;;;;;;;;5044956;28;20044;-56
2022/08/21 13:59:51;;;;;;;30.90;5.30;;;;;;;;;;5045874;28;20067;-56
2022/08/21 14:02:23;;;;;;;12.60;3.13;;;;;;;;;;5046094;28;20124;-56
2022/08/21 14:04:58;;;;;;;116.38;9.35;;;;;;;;;;5046163;28;20044;-58
2022/08/21 14:07:30;;;;;;;16.92;3.55;;;;;;;;;;5050032;28;20421;-58
2022/08/21 14:10:00;;;;;;;22.42;4.53;;;;;;;;;;5045666;28;20052;-66
2022/08/21 14:12:40;;;;;;;38.67;5.20;;;;;;;;;;5044944;28;20052;-79
2022/08/21 14:15:07;;;;;;;19.75;3.55;;;;;;;;;;5045698;28;20099;-55
2022/08/21 14:17:36;;;;;;;47.00;6.07;;;;;;;;;;5043849;28;20052;-56
2022/08/21 14:20:05;;;;;;;22.08;3.80;;;;;;;;;;5047595;28;20125;-56
2022/08/21 14:22:45;;;;;;;114.40;10.90;;;;;;;;;;5044354;28;20049;-56
2022/08/21 14:25:12;;;;;;;22.00;3.83;;;;;;;;;;5045218;28;20555;-56
2022/08/21 14:27:44;;;;;;;13.60;2.90;;;;;;;;;;5047200;28;20505;-56
2022/08/21 14:30:19;;;;;;;37.35;5.03;;;;;;;;;;5048640;28;20044;-56
2022/08/21 14:32:46;;;;;;;12.10;3.00;;;;;;;;;;5064400;28;20068;-56
2022/08/21 14:35:14;;;;;;;20.15;3.47;;;;;;;;;;5047487;28;20069;-56
2022/08/21 14:37:44;;;;;;;24.42;4.15;;;;;;;;;;5052713;28;20127;-56
2022/08/21 14:40:15;;;;;;;14.65;3.60;;;;;;;;;;5049197;28;20043;-55
2022/08/21 14:42:43;;;;;;;36.05;5.10;;;;;;;;;;5048277;28;20052;-56
2022/08/21 14:45:19;;;;;;;45.22;5.80;;;;;;;;;;5048738;28;20044;-56
2022/08/21 14:47:50;;;;;;;17.42;3.70;;;;;;;;;;5048727;28;20044;-56
2022/08/21 14:50:17;;;;;;;24.00;4.05;;;;;;;;;;5049272;28;20079;-55